sensor_id;sensor_type;location;lat;lon;timestamp;pressure;altitude;pressure_sealevel;temperature;humidity
21431;BME280;10876;49.038;10.608;2022-07-23T00:00:27;98367.78;;;21.18;100.00
21431;BME280;10876;49.038;10.608;2022-07-23T00:02:54;98364.16;;;21.10;100.00
21431;BME280;10876;49.038;10.608;2022-07-23T00:05:25;98369.34;;;21.15;100.00
21431;BME280;10876;49.038;10.608;2022-07-23T00:07:53;98362.22;;;21.29;100.00
21431;BME280;10876;49.038;10.608;2022-07-23T00:10:20;98362.94;;;21.11;100.00
21431;BME280;10876;49.038;10.608;2022-07-23T00:12:49;98361.00;;;21.15;100.00
21431;BME280;10876;49.038;10.608;2022-07-23T00:15:16;98354.28;;;21.31;100.00
21431;BME280;10876;49.038;10.608;2022-07-23T00:17:44;98361.44;;;21.28;100.00
21431;BME280;10876;49.038;10.608;2022-07-23T00:20:12;98357.50;;;21.33;100.00
21431;BME280;10876;49.038;10.608;2022-07-23T00:22:47;98353.50;;;21.34;100.00
21431;BME280;10876;49.038;10.608;2022-07-23T00:25:15;98344.00;;;21.42;100.00
21431;BME280;10876;49.038;10.608;2022-07-23T00:27:45;98341.63;;;21.44;100.00
21431;BME280;10876;49.038;10.608;2022-07-23T00:30:13;98338.03;;;21.40;100.00
21431;BME280;10876;49.038;10.608;2022-07-23T00:32:48;98347.22;;;21.51;100.00
21431;BME280;10876;49.038;10.608;2022-07-23T00:35:16;98336.06;;;21.44;100.00
21431;BME280;10876;49.038;10.608;2022-07-23T00:37:43;98339.66;;;21.48;100.00
21431;BME280;10876;49.038;10.608;2022-07-23T00:40:13;98344.00;;;21.42;100.00
21431;BME280;10876;49.038;10.608;2022-07-23T00:42:41;98335.16;;;21.26;100.00
21431;BME280;10876;49.038;10.608;2022-07-23T00:45:09;98333.19;;;21.26;100.00
21431;BME280;10876;49.038;10.608;2022-07-23T00:47:36;98333.31;;;21.55;100.00
21431;BME280;10876;49.038;10.608;2022-07-23T00:50:06;98342.88;;;21.65;100.00
21431;BME280;10876;49.038;10.608;2022-07-23T00:52:35;98340.81;;;21.36;100.00
21431;BME280;10876;49.038;10.608;2022-07-23T00:55:03;98342.75;;;21.32;100.00
21431;BME280;10876;49.038;10.608;2022-07-23T00:57:32;98337.44;;;21.02;100.00
21431;BME280;10876;49.038;10.608;2022-07-23T00:59:59;98347.50;;;21.21;100.00
21431;BME280;10876;49.038;10.608;2022-07-23T01:02:27;98355.06;;;21.28;100.00
21431;BME280;10876;49.038;10.608;2022-07-23T01:04:54;98357.16;;;21.45;100.00
21431;BME280;10876;49.038;10.608;2022-07-23T01:07:21;98353.28;;;20.87;100.00
21431;BME280;10876;49.038;10.608;2022-07-23T01:09:49;98356.53;;;21.00;100.00
21431;BME280;10876;49.038;10.608;2022-07-23T01:12:16;98351.06;;;21.25;100.00
21431;BME280;10876;49.038;10.608;2022-07-23T01:14:44;98339.00;;;20.92;100.00
21431;BME280;10876;49.038;10.608;2022-07-23T01:17:11;98342.22;;;20.98;100.00
21431;BME280;10876;49.038;10.608;2022-07-23T01:19:38;98338.19;;;20.92;100.00
21431;BME280;10876;49.038;10.608;2022-07-23T01:22:04;98346.28;;;21.22;100.00
21431;BME280;10876;49.038;10.608;2022-07-23T01:24:33;98349.59;;;21.42;100.00
21431;BME280;10876;49.038;10.608;2022-07-23T01:27:00;98341.66;;;21.51;100.00
21431;BME280;10876;49.038;10.608;2022-07-23T01:29:26;98340.06;;;21.57;100.00
21431;BME280;10876;49.038;10.608;2022-07-23T01:31:53;98344.84;;;21.53;100.00
21431;BME280;10876;49.038;10.608;2022-07-23T01:34:20;98351.16;;;21.40;100.00
21431;BME280;10876;49.038;10.608;2022-07-23T01:36:47;98354.66;;;21.22;100.00
21431;BME280;10876;49.038;10.608;2022-07-23T01:39:13;98352.97;;;21.03;100.00
21431;BME280;10876;49.038;10.608;2022-07-23T01:41:41;98358.13;;;21.01;100.00
21431;BME280;10876;49.038;10.608;2022-07-23T01:44:08;98355.00;;;21.06;100.00
21431;BME280;10876;49.038;10.608;2022-07-23T01:46:35;98358.13;;;21.01;100.00
21431;BME280;10876;49.038;10.608;2022-07-23T01:49:02;98362.84;;;20.93;100.00
21431;BME280;10876;49.038;10.608;2022-07-23T01:51:28;98375.63;;;20.98;100.00
21431;BME280;10876;49.038;10.608;2022-07-23T01:53:55;98379.72;;;21.19;100.00
21431;BME280;10876;49.038;10.608;2022-07-23T01:56:22;98380.66;;;21.48;100.00
21431;BME280;10876;49.038;10.608;2022-07-23T01:58:50;98379.97;;;21.83;100.00
21431;BME280;10876;49.038;10.608;2022-07-23T02:01:16;98372.44;;;22.05;100.00
21431;BME280;10876;49.038;10.608;2022-07-23T02:03:43;98354.16;;;22.18;100.00
21431;BME280;10876;49.038;10.608;2022-07-23T02:06:10;98343.38;;;22.35;100.00
21431;BME280;10876;49.038;10.608;2022-07-23T02:08:37;98325.00;;;22.73;100.00
21431;BME280;10876;49.038;10.608;2022-07-23T02:11:04;98336.97;;;22.63;100.00
21431;BME280;10876;49.038;10.608;2022-07-23T02:13:30;98335.41;;;22.51;100.00
21431;BME280;10876;49.038;10.608;2022-07-23T02:15:59;98325.03;;;22.52;100.00
21431;BME280;10876;49.038;10.608;2022-07-23T02:18:25;98295.94;;;22.53;100.00
21431;BME280;10876;49.038;10.608;2022-07-23T02:20:52;98266.84;;;21.96;100.00
21431;BME280;10876;49.038;10.608;2022-07-23T02:23:19;98260.44;;;21.71;100.00
21431;BME280;10876;49.038;10.608;2022-07-23T02:25:45;98268.41;;;21.62;100.00
21431;BME280;10876;49.038;10.608;2022-07-23T02:28:13;98285.09;;;21.54;100.00
21431;BME280;10876;49.038;10.608;2022-07-23T02:30:40;98304.63;;;21.44;100.00
21431;BME280;10876;49.038;10.608;2022-07-23T02:33:08;98297.75;;;21.27;100.00
21431;BME280;10876;49.038;10.608;2022-07-23T02:35:35;98298.22;;;21.43;100.00
21431;BME280;10876;49.038;10.608;2022-07-23T02:38:02;98293.38;;;21.26;100.00
21431;BME280;10876;49.038;10.608;2022-07-23T02:40:28;98306.44;;;21.07;100.00
21431;BME280;10876;49.038;10.608;2022-07-23T02:42:55;98318.34;;;21.01;100.00
21431;BME280;10876;49.038;10.608;2022-07-23T02:45:22;98317.09;;;20.91;100.00
21431;BME280;10876;49.038;10.608;2022-07-23T02:47:49;98320.66;;;20.84;100.00
21431;BME280;10876;49.038;10.608;2022-07-23T02:50:17;98321.84;;;20.83;100.00
21431;BME280;10876;49.038;10.608;2022-07-23T02:52:43;98328.59;;;20.86;100.00
21431;BME280;10876;49.038;10.608;2022-07-23T02:55:10;98329.78;;;20.85;100.00
21431;BME280;10876;49.038;10.608;2022-07-23T02:57:37;98325.00;;;20.82;100.00
21431;BME280;10876;49.038;10.608;2022-07-23T03:00:07;98313.69;;;20.53;100.00
21431;BME280;10876;49.038;10.608;2022-07-23T03:02:34;98324.47;;;20.55;100.00
21431;BME280;10876;49.038;10.608;2022-07-23T03:05:01;98338.13;;;20.78;100.00
21431;BME280;10876;49.038;10.608;2022-07-23T03:07:29;98342.81;;;20.66;100.00
21431;BME280;10876;49.038;10.608;2022-07-23T03:09:56;98351.56;;;20.68;100.00
21431;BME280;10876;49.038;10.608;2022-07-23T03:12:23;98355.53;;;20.67;100.00
21431;BME280;10876;49.038;10.608;2022-07-23T03:14:49;98393.63;;;20.56;100.00
21431;BME280;10876;49.038;10.608;2022-07-23T03:17:16;98393.75;;;20.70;100.00
21431;BME280;10876;49.038;10.608;2022-07-23T03:19:43;98397.06;;;20.90;100.00
21431;BME280;10876;49.038;10.608;2022-07-23T03:22:09;98394.34;;;21.01;100.00
21431;BME280;10876;49.038;10.608;2022-07-23T03:24:37;98385.09;;;20.86;100.00
21431;BME280;10876;49.038;10.608;2022-07-23T03:27:20;98376.41;;;20.95;100.00
21431;BME280;10876;49.038;10.608;2022-07-23T03:29:47;98372.50;;;21.14;100.00
21431;BME280;10876;49.038;10.608;2022-07-23T03:32:13;98379.66;;;21.08;100.00
21431;BME280;10876;49.038;10.608;2022-07-23T03:34:40;98385.13;;;20.90;100.00
21431;BME280;10876;49.038;10.608;2022-07-23T03:37:07;98398.41;;;20.56;100.00
21431;BME280;10876;49.038;10.608;2022-07-23T03:39:33;98419.47;;;20.57;100.00
21431;BME280;10876;49.038;10.608;2022-07-23T03:42:02;98423.91;;;20.61;100.00
21431;BME280;10876;49.038;10.608;2022-07-23T03:44:29;98424.03;;;20.79;100.00
21431;BME280;10876;49.038;10.608;2022-07-23T03:46:55;98423.16;;;20.72;100.00
21431;BME280;10876;49.038;10.608;2022-07-23T03:49:22;98425.47;;;20.62;100.00
21431;BME280;10876;49.038;10.608;2022-07-23T03:51:49;98431.75;;;20.52;100.00
21431;BME280;10876;49.038;10.608;2022-07-23T03:54:16;98414.97;;;20.45;100.00
21431;BME280;10876;49.038;10.608;2022-07-23T03:56:43;98421.63;;;20.33;100.00
21431;BME280;10876;49.038;10.608;2022-07-23T03:59:11;98425.00;;;20.12;100.00
21431;BME280;10876;49.038;10.608;2022-07-23T04:01:38;98425.03;;;20.16;100.00
21431;BME280;10876;49.038;10.608;2022-07-23T04:04:04;98442.38;;;20.02;100.00
21431;BME280;10876;49.038;10.608;2022-07-23T04:06:31;98439.28;;;20.11;100.00
21431;BME280;10876;49.038;10.608;2022-07-23T04:08:58;98461.56;;;20.14;100.00
21431;BME280;10876;49.038;10.608;2022-07-23T04:11:25;98467.13;;;20.14;100.00
21431;BME280;10876;49.038;10.608;2022-07-23T04:13:52;98460.53;;;20.26;100.00
21431;BME280;10876;49.038;10.608;2022-07-23T04:16:20;98461.06;;;20.42;100.00
21431;BME280;10876;49.038;10.608;2022-07-23T04:18:47;98457.97;;;20.51;100.00
21431;BME280;10876;49.038;10.608;2022-07-23T04:21:14;98467.13;;;20.14;100.00
21431;BME280;10876;49.038;10.608;2022-07-23T04:23:40;98464.00;;;20.19;100.00
21431;BME280;10876;49.038;10.608;2022-07-23T04:26:07;98468.34;;;20.17;100.00
21431;BME280;10876;49.038;10.608;2022-07-23T04:28:34;98461.97;;;20.13;100.00
21431;BME280;10876;49.038;10.608;2022-07-23T04:31:00;98458.94;;;19.91;100.00
21431;BME280;10876;49.038;10.608;2022-07-23T04:33:29;98453.78;;;19.90;100.00
21431;BME280;10876;49.038;10.608;2022-07-23T04:35:55;98467.56;;;19.83;100.00
21431;BME280;10876;49.038;10.608;2022-07-23T04:38:22;98472.63;;;19.73;100.00
21431;BME280;10876;49.038;10.608;2022-07-23T04:40:49;98481.00;;;19.77;100.00
21431;BME280;10876;49.038;10.608;2022-07-23T04:43:16;98482.59;;;19.74;100.00
21431;BME280;10876;49.038;10.608;2022-07-23T04:45:42;98501.66;;;19.76;100.00
21431;BME280;10876;49.038;10.608;2022-07-23T04:48:09;98513.25;;;19.82;100.00
21431;BME280;10876;49.038;10.608;2022-07-23T04:50:37;98509.63;;;19.77;100.00
21431;BME280;10876;49.038;10.608;2022-07-23T04:53:04;98519.09;;;19.73;100.00
21431;BME280;10876;49.038;10.608;2022-07-23T04:55:31;98522.22;;;19.71;100.00
21431;BME280;10876;49.038;10.608;2022-07-23T04:57:58;98532.63;;;19.74;100.00
21431;BME280;10876;49.038;10.608;2022-07-23T05:00:24;98532.69;;;19.82;100.00
21431;BME280;10876;49.038;10.608;2022-07-23T05:02:51;98539.47;;;19.84;100.00
21431;BME280;10876;49.038;10.608;2022-07-23T05:05:18;98549.50;;;19.89;100.00
21431;BME280;10876;49.038;10.608;2022-07-23T05:07:46;98544.03;;;19.99;100.00
21431;BME280;10876;49.038;10.608;2022-07-23T05:10:13;98557.56;;;20.01;100.00
21431;BME280;10876;49.038;10.608;2022-07-23T05:12:39;98569.97;;;20.07;100.00
21431;BME280;10876;49.038;10.608;2022-07-23T05:15:06;98573.25;;;20.16;100.00
21431;BME280;10876;49.038;10.608;2022-07-23T05:17:33;98579.31;;;20.25;100.00
21431;BME280;10876;49.038;10.608;2022-07-23T05:20:00;98587.59;;;20.52;100.00
21431;BME280;10876;49.038;10.608;2022-07-23T05:22:28;98584.47;;;20.57;100.00
21431;BME280;10876;49.038;10.608;2022-07-23T05:24:56;98593.28;;;20.63;100.00
21431;BME280;10876;49.038;10.608;2022-07-23T05:27:22;98594.13;;;20.63;100.00
21431;BME280;10876;49.038;10.608;2022-07-23T05:29:49;98594.59;;;20.73;100.00
21431;BME280;10876;49.038;10.608;2022-07-23T05:32:16;98588.72;;;20.81;100.00
21431;BME280;10876;49.038;10.608;2022-07-23T05:34:43;98587.56;;;20.86;100.00
21431;BME280;10876;49.038;10.608;2022-07-23T05:37:09;98581.75;;;21.02;100.00
21431;BME280;10876;49.038;10.608;2022-07-23T05:39:36;98582.66;;;21.17;100.00
21431;BME280;10876;49.038;10.608;2022-07-23T05:42:05;98579.56;;;21.29;100.00
21431;BME280;10876;49.038;10.608;2022-07-23T05:44:31;98573.19;;;21.25;100.00
21431;BME280;10876;49.038;10.608;2022-07-23T05:46:58;98575.00;;;21.51;100.00
21431;BME280;10876;49.038;10.608;2022-07-23T05:49:25;98578.28;;;21.64;100.00
21431;BME280;10876;49.038;10.608;2022-07-23T05:51:51;98579.09;;;21.68;100.00
21431;BME280;10876;49.038;10.608;2022-07-23T05:54:18;98579.94;;;21.75;100.00
21431;BME280;10876;49.038;10.608;2022-07-23T05:56:45;98570.63;;;22.23;100.00
21431;BME280;10876;49.038;10.608;2022-07-23T05:59:13;98567.47;;;22.28;100.00
21431;BME280;10876;49.038;10.608;2022-07-23T06:01:40;98570.69;;;22.37;100.00
21431;BME280;10876;49.038;10.608;2022-07-23T06:04:07;98567.50;;;22.35;100.00
21431;BME280;10876;49.038;10.608;2022-07-23T06:06:34;98561.88;;;22.28;100.00
21431;BME280;10876;49.038;10.608;2022-07-23T06:09:01;98552.75;;;22.38;100.00
21431;BME280;10876;49.038;10.608;2022-07-23T06:11:27;98545.16;;;22.35;100.00
21431;BME280;10876;49.038;10.608;2022-07-23T06:13:55;98549.16;;;22.45;100.00
21431;BME280;10876;49.038;10.608;2022-07-23T06:16:25;98540.38;;;22.39;100.00
21431;BME280;10876;49.038;10.608;2022-07-23T06:18:52;98541.22;;;22.51;100.00
21431;BME280;10876;49.038;10.608;2022-07-23T06:21:19;98525.66;;;22.49;100.00
21431;BME280;10876;49.038;10.608;2022-07-23T06:23:45;98524.47;;;22.65;100.00
21431;BME280;10876;49.038;10.608;2022-07-23T06:26:12;98526.13;;;22.84;100.00
21431;BME280;10876;49.038;10.608;2022-07-23T06:28:39;98526.94;;;23.06;100.00
21431;BME280;10876;49.038;10.608;2022-07-23T06:31:06;98518.97;;;23.01;100.00
21431;BME280;10876;49.038;10.608;2022-07-23T06:33:34;98514.16;;;22.98;100.00
21431;BME280;10876;49.038;10.608;2022-07-23T06:36:01;98513.38;;;23.15;100.00
21431;BME280;10876;49.038;10.608;2022-07-23T06:38:28;98504.59;;;23.09;100.00
21431;BME280;10876;49.038;10.608;2022-07-23T06:40:54;98508.56;;;22.98;100.00
21431;BME280;10876;49.038;10.608;2022-07-23T06:43:21;98497.00;;;23.10;100.00
21431;BME280;10876;49.038;10.608;2022-07-23T06:45:48;98483.44;;;23.05;100.00
21431;BME280;10876;49.038;10.608;2022-07-23T06:48:14;98483.78;;;23.17;100.00
21431;BME280;10876;49.038;10.608;2022-07-23T06:50:42;98486.59;;;23.28;100.00
21431;BME280;10876;49.038;10.608;2022-07-23T06:53:09;98491.78;;;23.33;100.00
21431;BME280;10876;49.038;10.608;2022-07-23T06:55:36;98482.97;;;23.31;100.00
21431;BME280;10876;49.038;10.608;2022-07-23T06:58:04;98489.38;;;23.28;100.00
21431;BME280;10876;49.038;10.608;2022-07-23T07:00:30;98501.34;;;23.47;100.00
21431;BME280;10876;49.038;10.608;2022-07-23T07:02:58;98489.28;;;23.60;100.00
21431;BME280;10876;49.038;10.608;2022-07-23T07:05:25;98477.72;;;23.73;100.00
21431;BME280;10876;49.038;10.608;2022-07-23T07:07:54;98489.25;;;23.86;100.00
21431;BME280;10876;49.038;10.608;2022-07-23T07:10:21;98478.06;;;23.82;100.00
21431;BME280;10876;49.038;10.608;2022-07-23T07:12:48;98482.81;;;23.96;100.00
21431;BME280;10876;49.038;10.608;2022-07-23T07:15:14;98485.63;;;23.96;100.00
21431;BME280;10876;49.038;10.608;2022-07-23T07:17:41;98479.22;;;23.92;100.00
21431;BME280;10876;49.038;10.608;2022-07-23T07:20:09;98486.75;;;24.05;100.00
21431;BME280;10876;49.038;10.608;2022-07-23T07:22:37;98487.56;;;24.02;100.00
21431;BME280;10876;49.038;10.608;2022-07-23T07:25:07;98486.34;;;24.11;100.00
21431;BME280;10876;49.038;10.608;2022-07-23T07:27:34;98489.88;;;24.22;100.00
21431;BME280;10876;49.038;10.608;2022-07-23T07:30:00;98493.03;;;24.31;100.00
21431;BME280;10876;49.038;10.608;2022-07-23T07:32:27;98484.81;;;24.65;100.00
21431;BME280;10876;49.038;10.608;2022-07-23T07:34:55;98472.78;;;24.68;100.00
21431;BME280;10876;49.038;10.608;2022-07-23T07:37:21;98470.06;;;25.06;100.00
21431;BME280;10876;49.038;10.608;2022-07-23T07:39:48;98466.81;;;25.11;100.00
21431;BME280;10876;49.038;10.608;2022-07-23T07:42:16;98468.31;;;25.27;100.00
21431;BME280;10876;49.038;10.608;2022-07-23T07:44:43;98475.09;;;25.67;100.00
21431;BME280;10876;49.038;10.608;2022-07-23T07:47:09;98475.16;;;25.60;100.00
21431;BME280;10876;49.038;10.608;2022-07-23T07:49:36;98515.41;;;25.84;100.00
21431;BME280;10876;49.038;10.608;2022-07-23T07:52:03;98505.13;;;26.04;100.00
21431;BME280;10876;49.038;10.608;2022-07-23T07:54:31;98505.41;;;26.14;100.00
21431;BME280;10876;49.038;10.608;2022-07-23T07:56:58;98506.66;;;26.13;100.00
21431;BME280;10876;49.038;10.608;2022-07-23T07:59:28;98520.31;;;26.11;100.00
21431;BME280;10876;49.038;10.608;2022-07-23T08:01:55;98514.38;;;26.32;100.00
21431;BME280;10876;49.038;10.608;2022-07-23T08:04:22;98515.88;;;26.40;100.00
21431;BME280;10876;49.038;10.608;2022-07-23T08:06:49;98503.78;;;26.43;100.00
21431;BME280;10876;49.038;10.608;2022-07-23T08:09:15;98501.56;;;26.62;100.00
21431;BME280;10876;49.038;10.608;2022-07-23T08:11:42;98502.22;;;26.96;100.00
21431;BME280;10876;49.038;10.608;2022-07-23T08:14:09;98497.94;;;27.12;100.00
21431;BME280;10876;49.038;10.608;2022-07-23T08:16:38;98501.00;;;27.21;100.00
21431;BME280;10876;49.038;10.608;2022-07-23T08:19:04;98509.38;;;27.48;100.00
21431;BME280;10876;49.038;10.608;2022-07-23T08:21:31;98510.56;;;27.27;100.00
21431;BME280;10876;49.038;10.608;2022-07-23T08:23:58;98508.09;;;27.29;100.00
21431;BME280;10876;49.038;10.608;2022-07-23T08:26:24;98508.31;;;27.15;100.00
21431;BME280;10876;49.038;10.608;2022-07-23T08:28:51;98499.59;;;26.59;100.00
21431;BME280;10876;49.038;10.608;2022-07-23T08:31:18;98499.47;;;26.66;100.00
21431;BME280;10876;49.038;10.608;2022-07-23T08:33:46;98516.03;;;27.11;100.00
21431;BME280;10876;49.038;10.608;2022-07-23T08:36:13;98521.72;;;27.07;100.00
21431;BME280;10876;49.038;10.608;2022-07-23T08:38:39;98520.91;;;26.83;100.00
21431;BME280;10876;49.038;10.608;2022-07-23T08:41:07;98516.66;;;26.44;100.00
21431;BME280;10876;49.038;10.608;2022-07-23T08:43:34;98518.22;;;26.45;100.00
21431;BME280;10876;49.038;10.608;2022-07-23T08:46:02;98513.72;;;26.21;100.00
21431;BME280;10876;49.038;10.608;2022-07-23T08:48:30;98516.06;;;25.95;100.00
21431;BME280;10876;49.038;10.608;2022-07-23T08:51:00;98520.75;;;26.36;100.00
21431;BME280;10876;49.038;10.608;2022-07-23T08:53:29;98526.41;;;26.90;100.00
21431;BME280;10876;49.038;10.608;2022-07-23T08:55:58;98503.31;;;26.48;100.00
21431;BME280;10876;49.038;10.608;2022-07-23T08:58:27;98479.19;;;26.24;100.00
21431;BME280;10876;49.038;10.608;2022-07-23T09:00:53;98471.72;;;25.83;100.00
21431;BME280;10876;49.038;10.608;2022-07-23T09:03:23;98446.53;;;25.38;100.00
21431;BME280;10876;49.038;10.608;2022-07-23T09:05:50;98434.56;;;25.34;100.00
21431;BME280;10876;49.038;10.608;2022-07-23T09:08:20;98407.81;;;25.26;100.00
21431;BME280;10876;49.038;10.608;2022-07-23T09:10:51;98389.09;;;25.12;100.00
21431;BME280;10876;49.038;10.608;2022-07-23T09:13:33;98365.16;;;25.07;100.00
21431;BME280;10876;49.038;10.608;2022-07-23T09:16:03;98366.28;;;25.13;100.00
21431;BME280;10876;49.038;10.608;2022-07-23T09:18:32;98334.97;;;24.84;100.00
21431;BME280;10876;49.038;10.608;2022-07-23T09:21:07;98341.28;;;24.92;100.00
21431;BME280;10876;49.038;10.608;2022-07-23T09:23:38;98320.47;;;24.89;100.00
21431;BME280;10876;49.038;10.608;2022-07-23T09:26:28;98309.41;;;24.79;100.00
21431;BME280;10876;49.038;10.608;2022-07-23T09:28:59;98301.50;;;24.66;100.00
21431;BME280;10876;49.038;10.608;2022-07-23T09:31:31;98287.63;;;24.56;100.00
21431;BME280;10876;49.038;10.608;2022-07-23T09:34:07;98270.63;;;24.32;100.00
21431;BME280;10876;49.038;10.608;2022-07-23T09:36:34;98273.00;;;24.34;100.00
21431;BME280;10876;49.038;10.608;2022-07-23T09:39:03;98268.28;;;24.23;100.00
21431;BME280;10876;49.038;10.608;2022-07-23T09:41:38;98253.97;;;24.14;100.00
21431;BME280;10876;49.038;10.608;2022-07-23T09:44:15;98242.03;;;24.10;100.00
21431;BME280;10876;49.038;10.608;2022-07-23T09:46:43;98222.16;;;23.97;100.00
21431;BME280;10876;49.038;10.608;2022-07-23T09:49:17;98226.13;;;24.00;100.00
21431;BME280;10876;49.038;10.608;2022-07-23T09:51:50;98227.59;;;24.15;100.00
21431;BME280;10876;49.038;10.608;2022-07-23T09:54:27;98230.06;;;24.10;100.00
21431;BME280;10876;49.038;10.608;2022-07-23T09:56:57;98225.28;;;24.03;100.00
21431;BME280;10876;49.038;10.608;2022-07-23T09:59:25;98236.31;;;24.24;100.00
21431;BME280;10876;49.038;10.608;2022-07-23T10:01:54;98253.09;;;24.24;100.00
21431;BME280;10876;49.038;10.608;2022-07-23T10:04:22;98237.16;;;24.18;100.00
21431;BME280;10876;49.038;10.608;2022-07-23T10:06:52;98245.47;;;24.28;100.00
21431;BME280;10876;49.038;10.608;2022-07-23T10:09:24;98234.34;;;24.21;100.00
21431;BME280;10876;49.038;10.608;2022-07-23T10:11:52;98230.59;;;24.35;100.00
21431;BME280;10876;49.038;10.608;2022-07-23T10:14:23;98225.25;;;24.52;100.00
21431;BME280;10876;49.038;10.608;2022-07-23T10:16:50;98221.00;;;24.36;100.00
21431;BME280;10876;49.038;10.608;2022-07-23T10:19:18;98234.81;;;24.54;100.00
21431;BME280;10876;49.038;10.608;2022-07-23T10:21:48;98216.72;;;24.62;100.00
21431;BME280;10876;49.038;10.608;2022-07-23T10:24:23;98214.03;;;24.86;100.00
21431;BME280;10876;49.038;10.608;2022-07-23T10:27:21;98195.72;;;24.78;100.00
21431;BME280;10876;49.038;10.608;2022-07-23T10:29:57;98204.31;;;24.63;100.00
21431;BME280;10876;49.038;10.608;2022-07-23T10:32:35;98179.31;;;24.42;100.00
21431;BME280;10876;49.038;10.608;2022-07-23T10:35:10;98175.94;;;24.61;100.00
21431;BME280;10876;49.038;10.608;2022-07-23T10:37:42;98175.41;;;25.01;100.00
21431;BME280;10876;49.038;10.608;2022-07-23T10:40:14;98169.66;;;25.11;100.00
21431;BME280;10876;49.038;10.608;2022-07-23T10:42:42;98175.13;;;25.49;100.00
21431;BME280;10876;49.038;10.608;2022-07-23T10:45:23;98193.81;;;25.59;100.00
21431;BME280;10876;49.038;10.608;2022-07-23T10:47:50;98196.09;;;25.92;100.00
21431;BME280;10876;49.038;10.608;2022-07-23T10:50:21;98208.38;;;26.01;100.00
21431;BME280;10876;49.038;10.608;2022-07-23T10:53:19;98199.81;;;26.09;100.00
21431;BME280;10876;49.038;10.608;2022-07-23T10:55:50;98200.53;;;25.93;100.00
21431;BME280;10876;49.038;10.608;2022-07-23T10:58:19;98199.56;;;25.76;100.00
21431;BME280;10876;49.038;10.608;2022-07-23T11:00:46;98195.16;;;25.75;100.00
21431;BME280;10876;49.038;10.608;2022-07-23T11:03:33;98186.00;;;25.71;100.00
21431;BME280;10876;49.038;10.608;2022-07-23T11:06:02;98169.88;;;25.51;100.00
21431;BME280;10876;49.038;10.608;2022-07-23T11:08:30;98179.25;;;25.68;100.00
21431;BME280;10876;49.038;10.608;2022-07-23T11:11:10;98170.91;;;25.88;100.00
21431;BME280;10876;49.038;10.608;2022-07-23T11:13:44;98172.50;;;25.89;100.00
21431;BME280;10876;49.038;10.608;2022-07-23T11:19:05;98183.88;;;26.25;100.00
21431;BME280;10876;49.038;10.608;2022-07-23T11:21:45;98185.47;;;26.70;100.00
21431;BME280;10876;49.038;10.608;2022-07-23T11:24:13;98215.69;;;27.22;100.00
21431;BME280;10876;49.038;10.608;2022-07-23T11:26:46;98244.19;;;26.84;100.00
21431;BME280;10876;49.038;10.608;2022-07-23T11:29:44;98246.19;;;26.64;100.00
21431;BME280;10876;49.038;10.608;2022-07-23T11:32:28;98231.59;;;26.49;100.00
21431;BME280;10876;49.038;10.608;2022-07-23T11:34:56;98235.88;;;26.77;100.00
21431;BME280;10876;49.038;10.608;2022-07-23T11:37:29;98235.47;;;26.99;100.00
21431;BME280;10876;49.038;10.608;2022-07-23T11:39:58;98246.81;;;27.11;100.00
21431;BME280;10876;49.038;10.608;2022-07-23T11:42:26;98250.00;;;27.13;100.00
21431;BME280;10876;49.038;10.608;2022-07-23T11:44:53;98256.06;;;27.12;100.00
21431;BME280;10876;49.038;10.608;2022-07-23T11:47:22;98282.13;;;27.89;100.00
21431;BME280;10876;49.038;10.608;2022-07-23T11:49:53;98278.72;;;27.45;100.00
21431;BME280;10876;49.038;10.608;2022-07-23T11:52:20;98263.72;;;27.31;100.00
21431;BME280;10876;49.038;10.608;2022-07-23T11:54:49;98277.84;;;27.08;100.00
21431;BME280;10876;49.038;10.608;2022-07-23T11:57:17;98259.09;;;27.01;100.00
21431;BME280;10876;49.038;10.608;2022-07-23T11:59:50;98261.28;;;26.93;100.00
21431;BME280;10876;49.038;10.608;2022-07-23T12:02:20;98278.63;;;26.88;100.00
21431;BME280;10876;49.038;10.608;2022-07-23T12:04:48;98269.50;;;26.84;100.00
21431;BME280;10876;49.038;10.608;2022-07-23T12:07:29;98279.78;;;26.91;100.00
21431;BME280;10876;49.038;10.608;2022-07-23T12:09:57;98276.13;;;26.94;100.00
21431;BME280;10876;49.038;10.608;2022-07-23T12:12:25;98285.53;;;26.84;100.00
21431;BME280;10876;49.038;10.608;2022-07-23T12:14:55;98280.59;;;26.91;100.00
21431;BME280;10876;49.038;10.608;2022-07-23T12:17:28;98291.91;;;26.88;100.00
21431;BME280;10876;49.038;10.608;2022-07-23T12:19:56;98264.19;;;26.66;100.00
21431;BME280;10876;49.038;10.608;2022-07-23T12:22:24;98253.19;;;26.56;100.00
21431;BME280;10876;49.038;10.608;2022-07-23T12:24:56;98267.09;;;26.39;100.00
21431;BME280;10876;49.038;10.608;2022-07-23T12:27:24;98277.72;;;26.51;100.00
21431;BME280;10876;49.038;10.608;2022-07-23T12:29:52;98272.91;;;26.72;100.00
21431;BME280;10876;49.038;10.608;2022-07-23T12:32:20;98281.25;;;26.99;100.00
21431;BME280;10876;49.038;10.608;2022-07-23T12:34:49;98292.53;;;27.35;100.00
21431;BME280;10876;49.038;10.608;2022-07-23T12:37:29;98289.00;;;27.51;100.00
21431;BME280;10876;49.038;10.608;2022-07-23T12:39:56;98299.25;;;27.78;100.00
21431;BME280;10876;49.038;10.608;2022-07-23T12:42:23;98319.44;;;27.93;100.00
21431;BME280;10876;49.038;10.608;2022-07-23T12:45:09;98327.94;;;28.25;100.00
21431;BME280;10876;49.038;10.608;2022-07-23T12:47:57;98343.44;;;28.34;100.00
21431;BME280;10876;49.038;10.608;2022-07-23T12:50:44;98354.28;;;27.82;100.00